Time,TemperatureF,DewpointF,PressureIn,WindDirection,WindDirectionDegrees,WindSpeedMPH,WindSpeedGustMPH,Humidity,HourlyPrecipIn,Conditions,Clouds,dailyrainin,SoftwareType,DateUTC
2013-11-24 00:04:00,17.2,9.4,30.76,WNW,295,1.0,2.0,71,0.00,,,0.00,Wunderground v.1.15,2013-11-24 06:04:00,
2013-11-24 00:14:00,16.9,9.4,30.76,NW,319,0.0,2.0,72,0.00,,,0.00,Wunderground v.1.15,2013-11-24 06:14:00,
2013-11-24 00:24:00,16.7,9.2,30.75,NW,322,1.0,2.0,72,0.00,,,0.00,Wunderground v.1.15,2013-11-24 06:24:00,
2013-11-24 00:34:00,16.6,9.4,30.76,North,349,1.0,2.0,73,0.00,,,0.00,Wunderground v.1.15,2013-11-24 06:34:00,
2013-11-24 00:44:00,16.3,9.5,30.75,NNW,330,1.0,2.0,74,0.00,,,0.00,Wunderground v.1.15,2013-11-24 06:44:00,
2013-11-24 00:54:00,16.2,9.4,30.75,NW,326,0.0,2.0,74,0.00,,,0.00,Wunderground v.1.15,2013-11-24 06:54:00,
2013-11-24 00:59:00,16.0,9.2,30.75,WNW,294,1.0,2.0,74,0.00,,,0.00,Wunderground v.1.15,2013-11-24 06:59:00,
2013-11-24 01:09:00,15.9,9.1,30.75,NNW,342,1.0,1.0,74,0.00,,,0.00,Wunderground v.1.15,2013-11-24 07:09:00,
2013-11-24 01:19:00,15.8,9.3,30.75,NW,307,1.0,1.0,75,0.00,,,0.00,Wunderground v.1.15,2013-11-24 07:19:00,
2013-11-24 01:29:00,15.7,9.2,30.75,North,357,1.0,2.0,75,0.00,,,0.00,Wunderground v.1.15,2013-11-24 07:29:00,
2013-11-24 01:39:00,15.5,9.3,30.75,WNW,303,0.0,2.0,76,0.00,,,0.00,Wunderground v.1.15,2013-11-24 07:39:00,
2013-11-24 01:49:00,15.2,9.0,30.75,WNW,302,1.0,4.0,76,0.00,,,0.00,Wunderground v.1.15,2013-11-24 07:49:00,
2013-11-24 01:59:00,15.2,9.0,30.75,NW,308,2.0,2.0,76,0.00,,,0.00,Wunderground v.1.15,2013-11-24 07:59:00,
2013-11-24 02:09:00,15.1,9.2,30.75,WNW,297,1.0,2.0,77,0.00,,,0.00,Wunderground v.1.15,2013-11-24 08:09:00,
2013-11-24 02:19:00,15.0,9.1,30.76,NW,304,1.0,1.0,77,0.00,,,0.00,Wunderground v.1.15,2013-11-24 08:19:00,
2013-11-24 02:29:00,14.9,9.0,30.76,NW,316,1.0,1.0,77,0.00,,,0.00,Wunderground v.1.15,2013-11-24 08:29:00,
2013-11-24 02:39:00,14.8,8.9,30.77,NW,311,0.0,2.0,77,0.00,,,0.00,Wunderground v.1.15,2013-11-24 08:39:00,
2013-11-24 02:49:00,14.6,9.0,30.77,North,1,0.0,2.0,78,0.00,,,0.00,Wunderground v.1.15,2013-11-24 08:49:00,
2013-11-24 02:59:00,14.5,8.9,30.76,NNE,15,0.0,2.0,78,0.00,,,0.00,Wunderground v.1.15,2013-11-24 08:59:00,
2013-11-24 03:09:00,14.4,8.8,30.76,NW,307,0.0,2.0,78,0.00,,,0.00,Wunderground v.1.15,2013-11-24 09:09:00,
2013-11-24 03:19:00,14.3,8.7,30.76,NW,319,0.0,2.0,78,0.00,,,0.00,Wunderground v.1.15,2013-11-24 09:19:00,
2013-11-24 03:29:00,14.3,9.0,30.76,NW,324,0.0,2.0,79,0.00,,,0.00,Wunderground v.1.15,2013-11-24 09:29:00,
2013-11-24 03:39:00,14.1,8.8,30.76,NNW,328,0.0,2.0,79,0.00,,,0.00,Wunderground v.1.15,2013-11-24 09:39:00,
2013-11-24 03:49:00,14.1,8.8,30.77,NW,323,0.0,2.0,79,0.00,,,0.00,Wunderground v.1.15,2013-11-24 09:49:00,
2013-11-24 03:59:00,13.9,8.9,30.77,NW,326,0.0,2.0,80,0.00,,,0.00,Wunderground v.1.15,2013-11-24 09:59:00,
2013-11-24 04:09:00,13.8,8.8,30.77,NNW,337,0.0,2.0,80,0.00,,,0.00,Wunderground v.1.15,2013-11-24 10:09:00,
2013-11-24 04:19:00,13.7,9.0,30.77,NNW,330,0.0,2.0,81,0.00,,,0.00,Wunderground v.1.15,2013-11-24 10:19:00,
2013-11-24 04:29:00,13.8,9.0,30.77,NW,311,0.0,2.0,81,0.00,,,0.00,Wunderground v.1.15,2013-11-24 10:29:00,
2013-11-24 04:39:00,13.7,9.0,30.76,NW,313,0.0,2.0,81,0.00,,,0.00,Wunderground v.1.15,2013-11-24 10:39:00,
2013-11-24 04:49:00,13.5,8.8,30.75,NW,310,0.0,2.0,81,0.00,,,0.00,Wunderground v.1.15,2013-11-24 10:49:00,
2013-11-24 04:59:00,13.5,8.8,30.75,NNW,347,1.0,1.0,81,0.00,,,0.00,Wunderground v.1.15,2013-11-24 10:59:00,
2013-11-24 05:09:00,13.3,8.8,30.75,NNW,342,0.0,2.0,82,0.00,,,0.00,Wunderground v.1.15,2013-11-24 11:09:00,
2013-11-24 05:19:00,13.3,8.8,30.75,NNW,346,0.0,2.0,82,0.00,,,0.00,Wunderground v.1.15,2013-11-24 11:19:00,
2013-11-24 05:29:00,13.3,8.8,30.76,NW,319,1.0,2.0,82,0.00,,,0.00,Wunderground v.1.15,2013-11-24 11:29:00,
2013-11-24 05:39:00,13.2,8.7,30.76,North,349,1.0,2.0,82,0.00,,,0.00,Wunderground v.1.15,2013-11-24 11:39:00,
2013-11-24 05:49:00,13.1,8.6,30.76,NNE,20,1.0,2.0,82,0.00,,,0.00,Wunderground v.1.15,2013-11-24 11:49:00,
2013-11-24 05:59:00,12.8,8.3,30.76,NW,319,0.0,2.0,82,0.00,,,0.00,Wunderground v.1.15,2013-11-24 11:59:00,
2013-11-24 06:09:00,12.7,8.2,30.76,NNE,16,0.0,2.0,82,0.00,,,0.00,Wunderground v.1.15,2013-11-24 12:09:00,
2013-11-24 06:19:00,-999.9,-99.9,30.76,North,32767,-999.0,2.0,255,-99.99,,,0.00,Wunderground v.1.15,2013-11-24 12:19:00,
2013-11-24 06:29:00,-999.9,-99.9,30.76,North,32767,-999.0,2.0,255,-99.99,,,0.00,Wunderground v.1.15,2013-11-24 12:29:00,
2013-11-24 06:39:00,-999.9,-99.9,30.75,North,32767,-999.0,2.0,255,-99.99,,,0.00,Wunderground v.1.15,2013-11-24 12:39:00,
2013-11-24 06:49:00,-999.9,-99.9,30.76,North,32767,-999.0,2.0,255,-99.99,,,0.00,Wunderground v.1.15,2013-11-24 12:49:00,
2013-11-24 06:59:00,-999.9,-99.9,30.75,North,32767,-999.0,2.0,255,-99.99,,,0.00,Wunderground v.1.15,2013-11-24 12:59:00,
2013-11-24 07:09:00,-999.9,-99.9,30.76,North,32767,-999.0,2.0,255,-99.99,,,0.00,Wunderground v.1.15,2013-11-24 13:09:00,
2013-11-24 07:19:00,-999.9,-99.9,30.76,North,32767,-999.0,2.0,255,-99.99,,,0.00,Wunderground v.1.15,2013-11-24 13:19:00,
2013-11-24 07:29:00,-999.9,-99.9,30.76,North,32767,-999.0,2.0,255,-99.99,,,0.00,Wunderground v.1.15,2013-11-24 13:29:00,
2013-11-24 07:39:00,-999.9,-99.9,30.76,North,32767,-999.0,2.0,255,-99.99,,,0.00,Wunderground v.1.15,2013-11-24 13:39:00,
2013-11-24 07:49:00,-999.9,-99.9,30.76,North,32767,-999.0,2.0,255,-99.99,,,0.00,Wunderground v.1.15,2013-11-24 13:49:00,
2013-11-24 07:54:00,13.6,9.9,30.75,ESE,117,0.0,2.0,85,0.00,,,0.00,Wunderground v.1.15,2013-11-24 13:54:00,
2013-11-24 07:59:00,13.9,10.0,30.75,NNE,26,0.0,2.0,84,0.00,,,0.00,Wunderground v.1.15,2013-11-24 13:59:00,
2013-11-24 08:09:00,14.5,10.5,30.75,West,279,0.0,2.0,84,0.00,,,0.00,Wunderground v.1.15,2013-11-24 14:09:00,
2013-11-24 08:19:00,15.2,11.0,30.76,NNE,28,0.0,2.0,83,0.00,,,0.00,Wunderground v.1.15,2013-11-24 14:19:00,
2013-11-24 08:29:00,15.5,10.7,30.76,North,8,1.0,1.0,81,0.00,,,0.00,Wunderground v.1.15,2013-11-24 14:29:00,
2013-11-24 08:34:00,16.1,11.3,30.76,NNW,347,0.0,2.0,81,0.00,,,0.00,Wunderground v.1.15,2013-11-24 14:34:00,
2013-11-24 08:44:00,16.6,11.5,30.76,NNW,346,0.0,2.0,80,0.00,,,0.00,Wunderground v.1.15,2013-11-24 14:44:00,
2013-11-24 08:54:00,17.5,12.1,30.75,NE,38,1.0,2.0,79,0.00,,,0.00,Wunderground v.1.15,2013-11-24 14:54:00,
2013-11-24 09:04:00,18.1,11.5,30.75,North,1,1.0,2.0,75,0.00,,,0.00,Wunderground v.1.15,2013-11-24 15:04:00,
2013-11-24 09:09:00,18.5,11.9,30.74,NNE,13,1.0,1.0,75,0.00,,,0.00,Wunderground v.1.15,2013-11-24 15:09:00,
2013-11-24 09:19:00,18.8,11.9,30.74,NNE,18,1.0,1.0,74,0.00,,,0.00,Wunderground v.1.15,2013-11-24 15:19:00,
2013-11-24 09:29:00,19.8,12.8,30.75,North,8,0.0,3.0,74,0.00,,,0.00,Wunderground v.1.15,2013-11-24 15:29:00,
2013-11-24 09:39:00,21.1,12.8,30.75,North,349,0.0,2.0,70,0.00,,,0.00,Wunderground v.1.15,2013-11-24 15:39:00,
2013-11-24 09:49:00,21.3,12.7,30.76,North,352,1.0,1.0,69,0.00,,,0.00,Wunderground v.1.15,2013-11-24 15:49:00,
2013-11-24 09:59:00,22.1,12.8,30.76,NE,41,0.0,2.0,67,0.00,,,0.00,Wunderground v.1.15,2013-11-24 15:59:00,
2013-11-24 10:09:00,22.3,12.0,30.75,NNW,338,2.0,3.0,64,0.00,,,0.00,Wunderground v.1.15,2013-11-24 16:09:00,
2013-11-24 10:19:00,22.2,12.2,30.75,East,86,1.0,1.0,65,0.00,,,0.00,Wunderground v.1.15,2013-11-24 16:19:00,
2013-11-24 10:29:00,22.6,11.9,30.74,NNE,18,2.0,3.0,63,0.00,,,0.00,Wunderground v.1.15,2013-11-24 16:29:00,
2013-11-24 10:39:00,22.9,12.5,30.74,North,352,1.0,3.0,64,0.00,,,0.00,Wunderground v.1.15,2013-11-24 16:39:00,
2013-11-24 10:49:00,23.6,12.5,30.73,NE,38,2.0,2.0,62,0.00,,,0.00,Wunderground v.1.15,2013-11-24 16:49:00,
2013-11-24 10:59:00,25.3,14.5,30.73,SE,129,1.0,1.0,63,0.00,,,0.00,Wunderground v.1.15,2013-11-24 16:59:00,
2013-11-24 11:04:00,25.3,13.3,30.72,NE,50,1.0,2.0,60,0.00,,,0.00,Wunderground v.1.15,2013-11-24 17:04:00,
2013-11-24 11:14:00,24.7,12.4,30.72,WNW,285,1.0,2.0,59,0.00,,,0.00,Wunderground v.1.15,2013-11-24 17:14:00,
2013-11-24 11:24:00,25.0,12.3,30.70,North,359,0.0,3.0,58,0.00,,,0.00,Wunderground v.1.15,2013-11-24 17:24:00,
2013-11-24 11:34:00,25.3,12.2,30.70,NNE,16,1.0,2.0,57,0.00,,,0.00,Wunderground v.1.15,2013-11-24 17:34:00,
2013-11-24 11:39:00,25.3,11.4,30.69,ENE,59,1.0,2.0,55,0.00,,,0.00,Wunderground v.1.15,2013-11-24 17:39:00,
2013-11-24 11:49:00,25.9,12.3,30.68,NE,38,1.0,2.0,56,0.00,,,0.00,Wunderground v.1.15,2013-11-24 17:49:00,
2013-11-24 11:59:00,26.6,11.7,30.68,West,262,0.0,2.0,53,0.00,,,0.00,Wunderground v.1.15,2013-11-24 17:59:00,
2013-11-24 12:09:00,27.1,13.1,30.67,SE,128,1.0,2.0,55,0.00,,,0.00,Wunderground v.1.15,2013-11-24 18:09:00,
2013-11-24 12:19:00,27.0,11.7,30.67,NNE,22,2.0,4.0,52,0.00,,,0.00,Wunderground v.1.15,2013-11-24 18:19:00,
2013-11-24 12:29:00,27.1,11.8,30.66,NW,314,2.0,2.0,52,0.00,,,0.00,Wunderground v.1.15,2013-11-24 18:29:00,
2013-11-24 12:39:00,27.3,10.6,30.65,NNW,333,1.0,2.0,49,0.00,,,0.00,Wunderground v.1.15,2013-11-24 18:39:00,
2013-11-24 12:49:00,27.0,8.9,30.65,North,352,2.0,2.0,46,0.00,,,0.00,Wunderground v.1.15,2013-11-24 18:49:00,
2013-11-24 12:59:00,27.3,10.2,30.64,North,350,2.0,2.0,48,0.00,,,0.00,Wunderground v.1.15,2013-11-24 18:59:00,
2013-11-24 13:09:00,27.5,10.4,30.63,ESE,111,1.0,1.0,48,0.00,,,0.00,Wunderground v.1.15,2013-11-24 19:09:00,
2013-11-24 13:19:00,27.7,10.5,30.63,NE,38,1.0,2.0,48,0.00,,,0.00,Wunderground v.1.15,2013-11-24 19:19:00,
2013-11-24 13:29:00,27.5,9.9,30.63,NNW,347,2.0,2.0,47,0.00,,,0.00,Wunderground v.1.15,2013-11-24 19:29:00,
2013-11-24 13:39:00,27.7,10.1,30.62,NE,43,1.0,1.0,47,0.00,,,0.00,Wunderground v.1.15,2013-11-24 19:39:00,
2013-11-24 13:49:00,28.0,9.9,30.62,NE,44,0.0,2.0,46,0.00,,,0.00,Wunderground v.1.15,2013-11-24 19:49:00,
2013-11-24 13:59:00,27.8,8.7,30.61,ESE,114,2.0,2.0,44,0.00,,,0.00,Wunderground v.1.15,2013-11-24 19:59:00,
2013-11-24 14:09:00,28.1,9.0,30.60,North,5,1.0,3.0,44,0.00,,,0.00,Wunderground v.1.15,2013-11-24 20:09:00,
2013-11-24 14:19:00,28.1,7.9,30.60,NNE,30,2.0,2.0,42,0.00,,,0.00,Wunderground v.1.15,2013-11-24 20:19:00,
2013-11-24 14:29:00,28.2,8.0,30.60,NNE,22,2.0,2.0,42,0.00,,,0.00,Wunderground v.1.15,2013-11-24 20:29:00,
2013-11-24 14:39:00,28.2,9.5,30.60,NNE,25,1.0,2.0,45,0.00,,,0.00,Wunderground v.1.15,2013-11-24 20:39:00,
2013-11-24 14:49:00,28.2,9.0,30.60,NNE,32,2.0,3.0,44,0.00,,,0.00,Wunderground v.1.15,2013-11-24 20:49:00,
2013-11-24 14:59:00,28.4,9.7,30.59,ESE,103,1.0,1.0,45,0.00,,,0.00,Wunderground v.1.15,2013-11-24 20:59:00,
2013-11-24 15:09:00,28.4,8.7,30.58,East,91,1.0,1.0,43,0.00,,,0.00,Wunderground v.1.15,2013-11-24 21:09:00,
2013-11-24 15:19:00,28.4,8.7,30.58,NNE,13,1.0,1.0,43,0.00,,,0.00,Wunderground v.1.15,2013-11-24 21:19:00,
2013-11-24 15:29:00,28.4,9.2,30.58,NNE,25,1.0,2.0,44,0.00,,,0.00,Wunderground v.1.15,2013-11-24 21:29:00,
2013-11-24 15:39:00,28.2,8.5,30.57,North,8,1.0,3.0,43,0.00,,,0.00,Wunderground v.1.15,2013-11-24 21:39:00,
2013-11-24 15:49:00,28.1,9.0,30.57,NNE,15,1.0,1.0,44,0.00,,,0.00,Wunderground v.1.15,2013-11-24 21:49:00,
2013-11-24 15:59:00,28.1,9.0,30.57,NE,42,0.0,2.0,44,0.00,,,0.00,Wunderground v.1.15,2013-11-24 21:59:00,
2013-11-24 16:09:00,28.0,8.9,30.57,NNE,32,1.0,1.0,44,0.00,,,0.00,Wunderground v.1.15,2013-11-24 22:09:00,
2013-11-24 16:19:00,27.9,9.3,30.57,NNE,17,0.0,2.0,45,0.00,,,0.00,Wunderground v.1.15,2013-11-24 22:19:00,
2013-11-24 16:29:00,27.8,9.7,30.56,NNE,32,0.0,2.0,46,0.00,,,0.00,Wunderground v.1.15,2013-11-24 22:29:00,
2013-11-24 16:39:00,27.7,9.6,30.56,NE,53,0.0,2.0,46,0.00,,,0.00,Wunderground v.1.15,2013-11-24 22:39:00,
2013-11-24 16:49:00,27.6,10.0,30.56,NNE,19,0.0,2.0,47,0.00,,,0.00,Wunderground v.1.15,2013-11-24 22:49:00,
2013-11-24 16:59:00,27.5,9.9,30.56,ENE,75,0.0,2.0,47,0.00,,,0.00,Wunderground v.1.15,2013-11-24 22:59:00,
2013-11-24 17:09:00,27.4,10.7,30.56,SE,127,0.0,2.0,49,0.00,,,0.00,Wunderground v.1.15,2013-11-24 23:09:00,
2013-11-24 17:19:00,27.3,11.1,30.56,ESE,114,0.0,2.0,50,0.00,,,0.00,Wunderground v.1.15,2013-11-24 23:19:00,
2013-11-24 17:29:00,26.9,10.7,30.55,ESE,114,0.0,2.0,50,0.00,,,0.00,Wunderground v.1.15,2013-11-24 23:29:00,
2013-11-24 17:39:00,26.4,12.4,30.56,ESE,114,0.0,2.0,55,0.00,,,0.00,Wunderground v.1.15,2013-11-24 23:39:00,
2013-11-24 17:49:00,25.4,13.8,30.55,ESE,114,0.0,2.0,61,0.00,,,0.00,Wunderground v.1.15,2013-11-24 23:49:00,
2013-11-24 17:59:00,24.7,13.1,30.55,NE,35,0.0,2.0,61,0.00,,,0.00,Wunderground v.1.15,2013-11-24 23:59:00,
2013-11-24 18:09:00,24.2,13.4,30.55,NE,35,0.0,2.0,63,0.00,,,0.00,Wunderground v.1.15,2013-11-25 00:09:00,
2013-11-24 18:19:00,23.5,13.5,30.54,NE,35,0.0,2.0,65,0.00,,,0.00,Wunderground v.1.15,2013-11-25 00:19:00,
2013-11-24 18:29:00,23.4,15.1,30.53,NE,35,0.0,2.0,70,0.00,,,0.00,Wunderground v.1.15,2013-11-25 00:29:00,
2013-11-24 18:39:00,24.2,15.5,30.52,NE,36,0.0,2.0,69,0.00,,,0.00,Wunderground v.1.15,2013-11-25 00:39:00,
2013-11-24 18:49:00,24.7,14.6,30.52,NE,43,0.0,2.0,65,0.00,,,0.00,Wunderground v.1.15,2013-11-25 00:49:00,
2013-11-24 18:59:00,25.4,14.2,30.52,NE,42,0.0,2.0,62,0.00,,,0.00,Wunderground v.1.15,2013-11-25 00:59:00,
2013-11-24 19:09:00,25.8,14.2,30.52,NE,43,0.0,2.0,61,0.00,,,0.00,Wunderground v.1.15,2013-11-25 01:09:00,
2013-11-24 19:14:00,26.0,14.4,30.52,East,89,0.0,2.0,61,0.00,,,0.00,Wunderground v.1.15,2013-11-25 01:14:00,
2013-11-24 19:24:00,26.3,13.9,30.51,NE,53,0.0,2.0,59,0.00,,,0.00,Wunderground v.1.15,2013-11-25 01:24:00,
2013-11-24 19:34:00,26.5,13.7,30.51,North,6,0.0,2.0,58,0.00,,,0.00,Wunderground v.1.15,2013-11-25 01:34:00,
2013-11-24 19:44:00,26.9,13.3,30.50,ENE,67,0.0,2.0,56,0.00,,,0.00,Wunderground v.1.15,2013-11-25 01:44:00,
2013-11-24 19:49:00,26.9,12.9,30.50,NE,35,0.0,2.0,55,0.00,,,0.00,Wunderground v.1.15,2013-11-25 01:49:00,
2013-11-24 19:59:00,27.2,13.6,30.49,ENE,69,0.0,2.0,56,0.00,,,0.00,Wunderground v.1.15,2013-11-25 01:59:00,
2013-11-24 20:09:00,27.3,14.1,30.50,SE,124,0.0,2.0,57,0.00,,,0.00,Wunderground v.1.15,2013-11-25 02:09:00,
2013-11-24 20:19:00,27.3,12.8,30.50,ESE,118,0.0,2.0,54,0.00,,,0.00,Wunderground v.1.15,2013-11-25 02:19:00,
2013-11-24 20:29:00,27.5,13.0,30.50,ESE,118,0.0,2.0,54,0.00,,,0.00,Wunderground v.1.15,2013-11-25 02:29:00,
2013-11-24 20:39:00,27.5,13.0,30.49,NE,34,0.0,2.0,54,0.00,,,0.00,Wunderground v.1.15,2013-11-25 02:39:00,
2013-11-24 20:49:00,27.7,13.2,30.49,NE,39,0.0,2.0,54,0.00,,,0.00,Wunderground v.1.15,2013-11-25 02:49:00,
2013-11-24 20:59:00,27.7,13.2,30.48,NE,35,0.0,2.0,54,0.00,,,0.00,Wunderground v.1.15,2013-11-25 02:59:00,
2013-11-24 21:09:00,27.8,13.3,30.47,East,79,0.0,2.0,54,0.00,,,0.00,Wunderground v.1.15,2013-11-25 03:09:00,
2013-11-24 21:19:00,27.8,13.7,30.46,NNE,28,0.0,2.0,55,0.00,,,0.00,Wunderground v.1.15,2013-11-25 03:19:00,
2013-11-24 21:29:00,28.0,13.5,30.46,SE,142,0.0,2.0,54,0.00,,,0.00,Wunderground v.1.15,2013-11-25 03:29:00,
2013-11-24 21:39:00,28.1,13.1,30.45,North,3,1.0,2.0,53,0.00,,,0.00,Wunderground v.1.15,2013-11-25 03:39:00,
2013-11-24 21:44:00,28.1,13.1,30.45,NNE,29,2.0,2.0,53,0.00,,,0.00,Wunderground v.1.15,2013-11-25 03:44:00,
2013-11-24 21:54:00,28.2,13.2,30.44,North,4,1.0,3.0,53,0.00,,,0.00,Wunderground v.1.15,2013-11-25 03:54:00,
2013-11-24 22:04:00,28.4,13.0,30.44,East,96,1.0,2.0,52,0.00,,,0.00,Wunderground v.1.15,2013-11-25 04:04:00,
2013-11-24 22:14:00,28.6,13.2,30.43,NE,56,0.0,2.0,52,0.00,,,0.00,Wunderground v.1.15,2013-11-25 04:14:00,
2013-11-24 22:19:00,28.7,13.3,30.43,SE,124,1.0,2.0,52,0.00,,,0.00,Wunderground v.1.15,2013-11-25 04:19:00,
2013-11-24 22:29:00,29.0,13.1,30.43,NE,45,1.0,1.0,51,0.00,,,0.00,Wunderground v.1.15,2013-11-25 04:29:00,
2013-11-24 22:39:00,29.1,12.8,30.42,East,90,2.0,2.0,50,0.00,,,0.00,Wunderground v.1.15,2013-11-25 04:39:00,
2013-11-24 22:49:00,29.3,13.4,30.42,SE,124,1.0,2.0,51,0.00,,,0.00,Wunderground v.1.15,2013-11-25 04:49:00,
2013-11-24 22:59:00,29.5,13.6,30.43,SE,138,2.0,2.0,51,0.00,,,0.00,Wunderground v.1.15,2013-11-25 04:59:00,
2013-11-24 23:04:00,29.5,13.1,30.43,NNE,29,3.0,3.0,50,0.00,,,0.00,Wunderground v.1.15,2013-11-25 05:04:00,
2013-11-24 23:09:00,29.6,13.7,30.43,East,91,2.0,2.0,51,0.00,,,0.00,Wunderground v.1.15,2013-11-25 05:09:00,
2013-11-24 23:14:00,29.6,13.2,30.43,East,98,1.0,2.0,50,0.00,,,0.00,Wunderground v.1.15,2013-11-25 05:14:00,
2013-11-24 23:24:00,29.7,14.2,30.42,SE,136,0.0,2.0,52,0.00,,,0.00,Wunderground v.1.15,2013-11-25 05:24:00,
2013-11-24 23:34:00,29.8,13.4,30.42,ENE,69,0.0,2.0,50,0.00,,,0.00,Wunderground v.1.15,2013-11-25 05:34:00,
2013-11-24 23:39:00,29.9,13.0,30.42,ENE,68,0.0,2.0,49,0.00,,,0.00,Wunderground v.1.15,2013-11-25 05:39:00,
2013-11-24 23:44:00,29.9,13.0,30.42,SE,124,1.0,2.0,49,0.00,,,0.00,Wunderground v.1.15,2013-11-25 05:44:00,
2013-11-24 23:54:00,30.1,13.2,30.42,ESE,110,1.0,2.0,49,0.00,,,0.00,Wunderground v.1.15,2013-11-25 05:54:00,